Time;durP1;ratioP1;P1;durP2;ratioP2;P2;SDS_P1;SDS_P2;PMS_P1;PMS_P2;Temp;Humidity;BMP_temperature;BMP_pressure;BME280_temperature;BME280_humidity;BME280_pressure;Samples;Min_cycle;Max_cycle;Signal;HPM_P1;HPM_P2
2022/08/14 00:00:48;;;;;;;4.13;3.83;;;22.00;27.40;;;;;;5034106;28;20209;-88
2022/08/14 00:03:19;;;;;;;5.25;4.75;;;22.00;33.60;;;;;;5036067;28;20246;-87
2022/08/14 00:05:46;;;;;;;5.45;4.95;;;22.00;42.10;;;;;;5036395;28;20243;-87
2022/08/14 00:08:13;;;;;;;5.65;5.15;;;22.00;58.10;;;;;;5036044;28;20205;-88
2022/08/14 00:10:42;;;;;;;5.50;5.00;;;22.00;63.20;;;;;;5035341;28;20253;-88
2022/08/14 00:13:09;;;;;;;4.85;4.30;;;22.00;67.00;;;;;;5035424;28;20237;-88
2022/08/14 00:15:39;;;;;;;5.03;4.63;;;21.90;68.20;;;;;;5050799;28;20289;-87
2022/08/14 00:18:09;;;;;;;5.45;4.95;;;21.90;71.40;;;;;;5054605;28;20251;-85
2022/08/14 00:20:39;;;;;;;5.22;4.82;;;21.90;76.20;;;;;;5053438;28;20198;-83
2022/08/14 00:23:07;;;;;;;5.70;5.20;;;21.90;94.00;;;;;;5034362;28;20595;-84
2022/08/14 00:25:34;;;;;;;6.30;5.70;;;21.80;94.60;;;;;;5034355;28;20210;-82
2022/08/14 00:28:03;;;;;;;6.60;6.00;;;21.80;99.90;;;;;;5035463;28;20273;-83
2022/08/14 00:30:30;;;;;;;6.60;6.00;;;21.80;99.90;;;;;;5035155;28;20226;-85
2022/08/14 00:32:57;;;;;;;7.57;6.82;;;21.80;99.90;;;;;;5033971;28;20194;-85
2022/08/14 00:35:24;;;;;;;7.00;6.40;;;21.80;99.90;;;;;;5034383;28;20223;-84
2022/08/14 00:37:52;;;;;;;6.88;6.07;;;21.80;99.90;;;;;;5049018;28;20816;-82
2022/08/14 00:40:21;;;;;;;6.85;6.32;;;21.80;99.90;;;;;;5053479;28;20202;-81
2022/08/14 00:42:48;;;;;;;5.95;5.45;;;21.80;99.90;;;;;;5054233;28;20198;-84
2022/08/14 00:45:17;;;;;;;7.65;6.60;;;21.70;99.90;;;;;;5054975;28;20206;-85
2022/08/14 00:47:46;;;;;;;7.18;6.47;;;21.70;99.90;;;;;;5054932;28;20205;-85
2022/08/14 00:50:17;;;;;;;6.32;5.82;;;21.70;99.90;;;;;;5054852;28;20210;-85
2022/08/14 00:52:45;;;;;;;6.07;5.57;;;21.70;99.90;;;;;;5034230;28;20663;-83
2022/08/14 00:55:12;;;;;;;6.50;5.57;;;21.60;99.90;;;;;;5034025;28;20206;-83
2022/08/14 00:57:40;;;;;;;5.72;5.32;;;21.60;99.90;;;;;;5034369;28;20194;-84
2022/08/14 01:00:12;;;;;;;5.75;5.25;;;21.60;99.90;;;;;;5033390;28;20503;-84
2022/08/14 01:02:42;;;;;;;5.55;5.10;;;21.50;99.90;;;;;;5033629;28;20643;-82
2022/08/14 01:05:22;;;;;;;5.97;5.47;;;21.50;99.90;;;;;;5041310;28;20204;-83
2022/08/14 01:07:50;;;;;;;6.25;5.75;;;21.50;99.90;;;;;;5054652;28;20194;-86
2022/08/14 01:10:18;;;;;;;6.38;5.88;;;21.50;99.90;;;;;;5054752;28;20205;-86
2022/08/14 01:12:47;;;;;;;5.65;5.15;;;21.40;99.90;;;;;;5054331;28;20206;-84
2022/08/14 01:15:15;;;;;;;5.47;5.07;;;21.40;99.90;;;;;;5054810;28;20589;-86
2022/08/14 01:23:15;;;;;;;6.25;5.70;;;21.30;99.90;;;;;;5055202;28;20196;-86
2022/08/14 01:25:41;;;;;;;7.88;6.53;;;21.20;99.90;;;;;;5054833;28;20193;-86
2022/08/14 01:28:09;;;;;;;6.53;6.03;;;21.20;99.90;;;;;;5055140;28;20206;-84
2022/08/14 01:30:37;;;;;;;5.68;5.18;;;21.20;99.90;;;;;;5054440;28;20200;-85
2022/08/14 01:33:05;;;;;;;5.93;5.43;;;21.20;99.90;;;;;;5054227;28;20552;-86
2022/08/14 01:35:32;;;;;;;6.63;5.90;;;21.10;99.90;;;;;;5051899;28;20233;-85
2022/08/14 01:37:59;;;;;;;6.18;5.68;;;21.10;99.90;;;;;;5034343;28;20507;-85
2022/08/14 01:40:30;;;;;;;6.22;5.72;;;21.10;99.90;;;;;;5034725;28;20207;-86
2022/08/14 01:42:57;;;;;;;6.53;6.03;;;21.10;99.90;;;;;;5034717;28;20281;-87
2022/08/14 01:45:24;;;;;;;6.68;6.10;;;21.00;99.90;;;;;;5048967;28;20211;-84
2022/08/14 01:47:51;;;;;;;7.10;6.50;;;21.00;99.90;;;;;;5053109;28;20194;-84
2022/08/14 01:50:17;;;;;;;8.75;7.95;;;21.00;99.90;;;;;;5052178;28;20788;-81
2022/08/14 01:52:45;;;;;;;6.93;6.30;;;20.90;99.90;;;;;;5033364;28;20253;-82
2022/08/14 01:55:13;;;;;;;6.53;6.00;;;20.90;99.90;;;;;;5047878;28;20208;-83
2022/08/14 01:57:44;;;;;;;7.20;6.35;;;20.90;99.90;;;;;;5053520;28;20620;-85
2022/08/14 02:00:15;;;;;;;6.55;6.05;;;20.90;99.90;;;;;;5052740;28;20228;-84
2022/08/14 02:02:42;;;;;;;6.72;6.03;;;20.90;99.90;;;;;;5052342;28;20237;-86
2022/08/14 02:05:12;;;;;;;7.45;6.82;;;20.80;99.90;;;;;;5053378;28;20613;-86
2022/08/14 02:07:39;;;;;;;7.80;7.10;;;20.80;99.90;;;;;;5054450;28;20233;-85
2022/08/14 02:10:07;;;;;;;6.82;6.03;;;20.80;99.90;;;;;;5054045;28;20237;-85
2022/08/14 02:12:34;;;;;;;6.55;6.05;;;20.70;99.90;;;;;;5054239;28;20232;-86
2022/08/14 02:15:03;;;;;;;7.03;6.50;;;20.70;99.90;;;;;;5053916;28;20225;-84
2022/08/14 02:17:32;;;;;;;6.78;6.20;;;20.70;99.90;;;;;;5054550;28;20225;-85
2022/08/14 02:19:59;;;;;;;7.57;6.88;;;20.70;99.90;;;;;;5054349;28;20281;-86
2022/08/14 02:22:27;;;;;;;6.55;6.05;;;20.70;99.90;;;;;;5054529;28;20204;-85
2022/08/14 02:24:54;;;;;;;6.80;6.30;;;20.60;99.90;;;;;;5055807;28;20206;-86
2022/08/14 02:27:21;;;;;;;7.38;6.78;;;20.60;99.90;;;;;;5048945;28;20206;-87
2022/08/14 02:29:48;;;;;;;7.07;6.45;;;20.60;99.90;;;;;;5038321;28;20234;-86
2022/08/14 02:32:17;;;;;;;7.20;6.65;;;20.50;99.90;;;;;;5037251;28;20224;-85
2022/08/14 02:34:44;;;;;;;7.82;7.10;;;20.50;99.90;;;;;;5049689;28;20206;-87
2022/08/14 02:37:12;;;;;;;8.68;7.88;;;20.50;99.90;;;;;;5057628;28;20217;-85
2022/08/14 02:39:43;;;;;;;8.40;7.68;;;20.50;99.90;;;;;;5057816;28;20494;-83
2022/08/14 02:42:13;;;;;;;8.60;7.90;;;20.50;99.90;;;;;;5057877;28;20654;-85
2022/08/14 02:44:41;;;;;;;7.57;6.88;;;20.50;99.90;;;;;;5058194;28;20566;-86
2022/08/14 02:47:08;;;;;;;6.90;6.35;;;20.50;99.90;;;;;;5057719;28;20223;-86
2022/08/14 02:49:36;;;;;;;7.78;6.97;;;20.40;99.90;;;;;;5057444;28;20624;-84
2022/08/14 02:52:06;;;;;;;8.02;7.30;;;20.40;99.90;;;;;;5058047;28;20716;-86
2022/08/14 02:54:34;;;;;;;8.73;8.02;;;20.30;99.90;;;;;;5057391;28;20206;-86
2022/08/14 02:57:05;;;;;;;7.72;7.05;;;20.30;99.90;;;;;;5037907;28;20202;-84
2022/08/14 02:59:33;;;;;;;9.43;8.60;;;20.30;99.90;;;;;;5047276;28;20206;-85
2022/08/14 03:02:01;;;;;;;8.38;7.68;;;20.30;99.90;;;;;;5056255;28;20217;-84
2022/08/14 03:04:29;;;;;;;8.10;7.43;;;20.30;99.90;;;;;;5055940;28;20229;-85
2022/08/14 03:06:58;;;;;;;7.85;7.25;;;20.20;99.90;;;;;;5055647;28;20213;-85
2022/08/14 03:09:26;;;;;;;7.93;7.30;;;20.20;99.90;;;;;;5056230;28;20503;-86
2022/08/14 03:11:53;;;;;;;7.90;7.30;;;20.20;99.90;;;;;;5055865;28;20233;-83
2022/08/14 03:14:22;;;;;;;8.63;7.90;;;20.20;99.90;;;;;;5055930;28;20205;-84
2022/08/14 03:16:49;;;;;;;7.57;6.95;;;20.10;99.90;;;;;;5056349;28;20202;-84
2022/08/14 03:19:16;;;;;;;8.55;7.80;;;20.10;99.90;;;;;;5056091;28;20284;-87
2022/08/14 03:21:44;;;;;;;8.88;8.07;;;20.10;99.90;;;;;;5056157;28;20202;-86
2022/08/14 03:24:12;;;;;;;7.70;7.00;;;20.10;99.90;;;;;;5056036;28;20202;-88
2022/08/14 03:26:40;;;;;;;7.93;7.32;;;20.00;99.90;;;;;;5057165;28;20229;-86
2022/08/14 03:29:08;;;;;;;9.15;8.45;;;20.00;99.90;;;;;;5056934;28;20216;-88
2022/08/14 03:31:37;;;;;;;8.50;7.80;;;20.00;99.90;;;;;;5056505;28;20233;-87
2022/08/14 03:34:04;;;;;;;8.50;7.78;;;19.90;99.90;;;;;;5056186;28;20650;-87
2022/08/14 03:36:32;;;;;;;8.50;7.75;;;19.90;99.90;;;;;;5055109;28;20229;-87
2022/08/14 03:39:00;;;;;;;9.52;8.73;;;19.90;99.90;;;;;;5056089;28;20194;-87
2022/08/14 03:41:28;;;;;;;9.32;8.43;;;19.90;99.90;;;;;;5056680;28;20280;-87
2022/08/14 03:43:57;;;;;;;8.82;8.05;;;19.80;99.90;;;;;;5056081;28;20598;-87
2022/08/14 03:46:25;;;;;;;9.63;8.82;;;19.80;99.90;;;;;;5056294;28;20210;-85
2022/08/14 03:48:54;;;;;;;9.27;8.48;;;19.80;99.90;;;;;;5050691;28;20229;-86
2022/08/14 03:51:27;;;;;;;10.00;9.18;;;19.80;99.90;;;;;;5035577;28;20253;-88
2022/08/14 03:53:55;;;;;;;10.10;9.20;;;19.70;99.90;;;;;;5053473;28;20259;-87
2022/08/14 03:56:25;;;;;;;9.38;8.57;;;19.70;99.90;;;;;;5055890;28;20760;-88
2022/08/14 03:58:55;;;;;;;10.57;9.55;;;19.70;99.90;;;;;;5056423;28;20198;-85
2022/08/14 04:01:24;;;;;;;9.75;8.95;;;19.70;99.90;;;;;;5049189;28;20498;-88
2022/08/14 04:03:53;;;;;;;9.38;8.63;;;19.70;99.90;;;;;;5035921;28;20309;-86
2022/08/14 04:06:21;;;;;;;8.82;8.05;;;19.70;99.90;;;;;;5044548;28;20197;-85
2022/08/14 04:08:50;;;;;;;9.07;8.30;;;19.70;99.90;;;;;;5055358;28;20201;-85
2022/08/14 04:11:18;;;;;;;9.82;8.98;;;19.70;99.90;;;;;;5055317;28;20281;-86
2022/08/14 04:13:45;;;;;;;9.68;8.88;;;19.70;99.90;;;;;;5057066;28;20335;-83
2022/08/14 04:16:16;;;;;;;10.13;9.32;;;19.60;99.90;;;;;;5056038;28;20289;-86
2022/08/14 04:18:45;;;;;;;10.75;9.82;;;19.60;99.90;;;;;;5056634;28;20269;-87
2022/08/14 04:21:14;;;;;;;10.50;9.60;;;19.60;99.90;;;;;;5055406;28;20202;-86
2022/08/14 04:23:41;;;;;;;11.20;10.20;;;19.60;99.90;;;;;;5054780;28;20622;-86
2022/08/14 04:26:10;;;;;;;10.68;9.68;;;19.60;99.90;;;;;;5053079;28;20480;-83
2022/08/14 04:28:39;;;;;;;11.63;10.63;;;19.60;99.90;;;;;;5053258;28;20208;-86
2022/08/14 04:31:06;;;;;;;10.80;9.90;;;19.60;99.90;;;;;;5054500;28;20204;-85
2022/08/14 04:33:35;;;;;;;10.43;9.52;;;19.50;99.90;;;;;;5053912;28;20722;-84
2022/08/14 04:36:02;;;;;;;10.80;9.70;;;19.50;99.90;;;;;;5054158;28;20279;-85
2022/08/14 04:43:58;;;;;;;9.85;8.95;;;19.60;99.90;;;;;;5050521;28;20624;-84
2022/08/14 04:46:27;;;;;;;11.43;10.30;;;19.50;99.90;;;;;;5060784;28;20206;-87
2022/08/14 04:48:56;;;;;;;11.13;10.05;;;19.50;99.90;;;;;;5072751;28;20217;-84
2022/08/14 04:51:24;;;;;;;12.35;11.20;;;19.50;99.90;;;;;;5068187;28;20220;-84
2022/08/14 04:53:51;;;;;;;11.55;10.45;;;19.60;99.90;;;;;;5059775;28;20198;-83
2022/08/14 04:56:21;;;;;;;12.60;11.50;;;19.50;99.90;;;;;;5059021;28;20194;-86
2022/08/14 04:58:49;;;;;;;11.40;10.40;;;19.60;99.90;;;;;;5057515;28;20202;-87
2022/08/14 05:01:16;;;;;;;11.00;10.02;;;19.60;99.90;;;;;;5055939;28;20661;-86
2022/08/14 05:03:44;;;;;;;11.43;10.30;;;19.60;99.90;;;;;;5055439;28;20565;-88
2022/08/14 05:06:13;;;;;;;10.80;9.90;;;19.60;99.90;;;;;;5036860;28;20245;-87
2022/08/14 05:08:42;;;;;;;11.30;10.20;;;19.60;99.90;;;;;;5036140;28;20217;-88
2022/08/14 05:11:09;;;;;;;12.82;11.55;;;19.60;99.90;;;;;;5036107;28;20595;-85
2022/08/14 05:13:37;;;;;;;11.82;10.82;;;19.60;99.90;;;;;;5055263;28;20230;-87
2022/08/14 05:16:06;;;;;;;10.57;9.65;;;19.70;99.90;;;;;;5058653;28;20208;-86
2022/08/14 05:18:37;;;;;;;11.60;10.60;;;19.70;99.90;;;;;;5064603;28;20190;-86
2022/08/14 05:21:07;;;;;;;12.88;11.65;;;19.70;99.90;;;;;;5062298;28;20212;-86
2022/08/14 05:23:38;;;;;;;13.18;12.00;;;19.70;99.90;;;;;;5061539;28;20201;-86
2022/08/14 05:26:11;;;;;;;11.82;10.80;;;19.80;99.90;;;;;;5059623;28;20258;-87
2022/08/14 05:28:43;;;;;;;11.85;10.75;;;19.80;99.90;;;;;;5056378;28;20197;-86
2022/08/14 05:31:11;;;;;;;13.27;12.15;;;19.80;99.90;;;;;;5048931;28;20238;-86
2022/08/14 05:33:38;;;;;;;11.73;10.63;;;19.80;99.90;;;;;;5048095;28;20228;-85
2022/08/14 05:36:08;;;;;;;11.20;10.07;;;19.80;99.90;;;;;;5062254;28;20232;-85
2022/08/14 05:38:40;;;;;;;12.95;11.68;;;19.90;99.90;;;;;;5062960;28;20201;-86
2022/08/14 05:41:10;;;;;;;11.70;10.52;;;19.90;99.90;;;;;;5063749;28;20277;-85
2022/08/14 05:43:39;;;;;;;13.23;12.02;;;20.00;99.90;;;;;;5065515;28;20186;-87
2022/08/14 05:46:06;;;;;;;12.30;11.20;;;20.00;99.90;;;;;;5064626;28;20217;-86
2022/08/14 05:48:33;;;;;;;12.55;11.45;;;20.00;99.90;;;;;;5061588;28;20261;-86
2022/08/14 05:51:00;;;;;;;13.07;11.68;;;20.00;99.90;;;;;;5062249;28;20335;-86
2022/08/14 05:53:28;;;;;;;13.43;10.65;;;20.10;99.90;;;;;;5062599;28;20217;-87
2022/08/14 05:55:57;;;;;;;12.20;11.13;;;20.10;99.90;;;;;;5062286;28;20198;-84
2022/08/14 05:58:25;;;;;;;12.82;11.63;;;20.20;99.90;;;;;;5058427;28;20210;-88
2022/08/14 06:00:54;;;;;;;12.90;11.70;;;20.20;99.90;;;;;;5060756;28;20208;-87
2022/08/14 06:03:22;;;;;;;12.23;11.05;;;20.20;99.90;;;;;;5062024;28;20234;-89
2022/08/14 06:05:52;;;;;;;11.95;10.85;;;20.30;99.90;;;;;;5062064;28;20277;-96
2022/08/14 06:08:20;;;;;;;12.57;11.38;;;20.30;99.90;;;;;;5062469;28;20214;-94
2022/08/14 06:10:48;;;;;;;12.15;11.02;;;20.40;99.90;;;;;;5062573;28;20205;-95
2022/08/14 06:13:17;;;;;;;13.38;12.18;;;20.40;99.90;;;;;;5063043;28;20222;-94
2022/08/14 06:15:44;;;;;;;12.23;11.13;;;20.50;99.90;;;;;;5065211;28;20202;-93
2022/08/14 06:18:11;;;;;;;13.35;12.07;;;20.60;99.90;;;;;;5057623;28;20652;-96
2022/08/14 06:20:39;;;;;;;13.15;11.95;;;20.60;99.90;;;;;;5046887;28;20294;-94
2022/08/14 06:23:06;;;;;;;11.32;10.23;;;20.70;99.90;;;;;;5060079;28;20193;-96
2022/08/14 06:25:33;;;;;;;12.88;11.68;;;20.80;99.90;;;;;;5059900;28;20202;-95
2022/08/14 06:28:01;;;;;;;11.60;10.50;;;20.90;99.90;;;;;;5061712;28;20217;-89
2022/08/14 06:30:31;;;;;;;12.00;10.88;;;21.00;99.90;;;;;;5061179;28;20293;-91
2022/08/14 06:32:58;;;;;;;12.02;10.80;;;21.20;99.90;;;;;;5059860;28;20305;-93
2022/08/14 06:35:25;;;;;;;12.95;11.73;;;21.40;99.90;;;;;;5058043;28;20301;-94
2022/08/14 06:37:54;;;;;;;11.93;10.70;;;21.60;99.90;;;;;;5058535;28;20255;-90
2022/08/14 06:40:22;;;;;;;10.82;9.82;;;21.80;99.90;;;;;;5058251;28;20293;-91
2022/08/14 06:42:49;;;;;;;10.40;9.40;;;22.10;99.90;;;;;;5058600;28;20198;-92
2022/08/14 06:45:17;;;;;;;9.70;8.75;;;22.30;99.90;;;;;;5067459;28;20823;-90
2022/08/14 06:47:48;;;;;;;10.68;9.68;;;22.60;99.90;;;;;;5078020;28;20501;-90
2022/08/14 06:50:17;;;;;;;9.63;8.70;;;23.00;58.70;;;;;;5058821;28;20211;-90
2022/08/14 06:52:44;;;;;;;10.18;9.18;;;23.30;1.00;;;;;;5037933;28;20710;-90
2022/08/14 06:55:12;;;;;;;10.82;9.05;;;23.60;1.00;;;;;;5042763;28;20284;-88
2022/08/14 06:57:44;;;;;;;8.02;7.22;;;23.90;1.00;;;;;;5058052;28;20212;-95
2022/08/14 07:00:13;;;;;;;10.05;8.43;;;24.10;1.00;;;;;;5069767;28;20205;-94
2022/08/14 07:05:46;;;;;;;9.15;8.32;;;24.50;63.40;;;;;;5057915;28;20185;-94
2022/08/14 07:08:21;;;;;;;10.05;9.20;;;24.80;99.90;;;;;;5060741;28;20233;-93
2022/08/14 07:10:50;;;;;;;8.65;7.93;;;25.10;1.00;;;;;;5052451;28;20209;-93
2022/08/14 07:13:18;;;;;;;8.55;7.85;;;25.40;97.50;;;;;;5058129;28;20240;-91
2022/08/14 07:15:47;;;;;;;9.38;8.45;;;25.70;1.00;;;;;;5050786;28;20241;-91
2022/08/14 07:18:14;;;;;;;8.77;7.97;;;25.90;99.90;;;;;;5056481;28;20665;-87
2022/08/14 07:20:44;;;;;;;8.90;8.10;;;26.10;1.00;;;;;;5054101;28;20225;-92
2022/08/14 07:23:11;;;;;;;7.72;7.13;;;26.40;1.00;;;;;;5045380;28;20214;-88
2022/08/14 07:25:40;;;;;;;8.88;8.07;;;26.60;1.00;;;;;;5048717;28;20206;-87
2022/08/14 07:28:14;;;;;;;8.32;7.53;;;26.70;1.00;;;;;;5050478;28;20313;-87
2022/08/14 07:30:41;;;;;;;8.02;7.32;;;27.00;1.00;;;;;;5057305;28;20212;-93
2022/08/14 07:33:09;;;;;;;7.13;6.32;;;27.20;1.00;;;;;;5058292;28;20214;-92
2022/08/14 07:35:37;;;;;;;8.38;7.57;;;27.60;99.90;;;;;;5056878;28;20232;-89
2022/08/14 07:38:06;;;;;;;8.18;7.47;;;27.80;1.00;;;;;;5056602;28;20202;-83
2022/08/14 07:40:34;;;;;;;7.85;7.13;;;28.10;1.00;;;;;;5055477;28;20237;-92
2022/08/14 07:43:01;;;;;;;8.13;7.53;;;28.30;1.00;;;;;;5057073;28;20193;-88
2022/08/14 07:45:29;;;;;;;7.82;7.13;;;28.40;1.00;;;;;;5056064;28;20234;-85
2022/08/14 07:47:56;;;;;;;7.35;6.65;;;28.70;1.00;;;;;;5056580;28;20248;-87
2022/08/14 07:50:24;;;;;;;9.32;8.15;;;28.90;1.00;;;;;;5056099;28;20210;-86
2022/08/14 07:52:51;;;;;;;8.38;7.38;;;29.10;99.90;;;;;;5056099;28;20214;-87
2022/08/14 07:55:21;;;;;;;7.38;6.63;;;29.30;99.90;;;;;;5055959;28;20205;-87
2022/08/14 07:57:49;;;;;;;7.00;6.30;;;29.50;99.90;;;;;;5056150;28;20202;-88
2022/08/14 08:00:18;;;;;;;8.35;7.30;;;29.70;99.90;;;;;;5056036;28;20204;-85
2022/08/14 08:02:48;;;;;;;7.40;6.70;;;29.80;99.90;;;;;;5054979;28;20640;-85
2022/08/14 08:05:15;;;;;;;6.80;6.10;;;29.90;99.90;;;;;;5035253;28;20206;-84
2022/08/14 08:07:44;;;;;;;6.70;6.00;;;30.00;99.90;;;;;;5048435;28;20493;-86
2022/08/14 08:10:31;;;;;;;7.68;6.93;;;30.10;99.90;;;;;;5054321;28;20194;-85
2022/08/14 08:13:02;;;;;;;6.25;5.75;;;30.30;99.90;;;;;;5054890;28;20217;-87
2022/08/14 08:15:31;;;;;;;7.50;6.80;;;30.30;99.90;;;;;;5056060;28;20197;-88
2022/08/14 08:17:58;;;;;;;7.78;6.63;;;30.50;99.90;;;;;;5055646;28;20216;-90
2022/08/14 08:20:27;;;;;;;6.90;6.30;;;30.60;99.90;;;;;;5055817;28;20206;-89
2022/08/14 08:22:55;;;;;;;7.82;6.55;;;30.60;99.90;;;;;;5054128;28;20598;-85
2022/08/14 08:25:23;;;;;;;7.22;6.53;;;30.80;99.90;;;;;;5055021;28;20288;-92
2022/08/14 08:27:59;;;;;;;6.20;5.60;;;30.90;99.90;;;;;;5055647;28;20321;-90
2022/08/14 08:30:28;;;;;;;8.20;7.40;;;31.20;99.90;;;;;;5054585;28;20198;-88
2022/08/14 08:32:56;;;;;;;7.43;6.72;;;31.30;99.90;;;;;;5054747;28;20311;-86
2022/08/14 08:35:26;;;;;;;7.20;6.60;;;31.20;99.90;;;;;;5054559;28;20221;-85
2022/08/14 08:38:00;;;;;;;5.88;5.38;;;31.30;99.90;;;;;;5039035;28;20226;-87
2022/08/14 08:40:30;;;;;;;7.05;6.40;;;31.40;99.90;;;;;;5034411;28;20616;-87
2022/08/14 08:42:59;;;;;;;6.47;5.97;;;31.70;99.90;;;;;;5035391;28;20198;-85
2022/08/14 08:45:26;;;;;;;7.40;6.30;;;31.80;99.90;;;;;;5033694;28;20210;-84
2022/08/14 08:47:54;;;;;;;8.43;6.35;;;31.80;99.90;;;;;;5034881;28;20595;-85
2022/08/14 08:50:24;;;;;;;5.90;5.40;;;31.90;99.90;;;;;;5036810;28;20229;-87
2022/08/14 08:52:53;;;;;;;6.85;6.25;;;32.00;99.90;;;;;;5054923;28;20223;-90
2022/08/14 08:55:28;;;;;;;6.13;5.68;;;32.00;99.90;;;;;;5054527;28;20495;-86
2022/08/14 08:58:01;;;;;;;7.07;6.47;;;32.30;99.90;;;;;;5053782;28;20204;-84
2022/08/14 09:00:32;;;;;;;7.78;7.03;;;32.40;99.90;;;;;;5054406;28;20202;-87
2022/08/14 09:03:03;;;;;;;7.05;6.50;;;32.30;99.90;;;;;;5054281;28;20237;-88
2022/08/14 09:05:32;;;;;;;6.60;5.47;;;32.30;99.90;;;;;;5052226;28;20289;-89
2022/08/14 09:08:15;;;;;;;7.60;6.38;;;32.60;99.90;;;;;;5054727;28;20197;-86
2022/08/14 09:10:42;;;;;;;6.63;6.07;;;32.80;99.90;;;;;;5054360;28;20212;-87
2022/08/14 09:13:12;;;;;;;7.05;6.35;;;32.90;99.90;;;;;;5054282;28;20561;-87
2022/08/14 09:15:41;;;;;;;6.10;5.57;;;33.10;99.90;;;;;;5054723;28;20220;-86
2022/08/14 09:18:09;;;;;;;7.07;5.88;;;33.20;99.90;;;;;;5053629;28;20525;-84
2022/08/14 09:20:39;;;;;;;9.85;6.70;;;33.10;99.90;;;;;;5053204;28;20216;-85
2022/08/14 09:23:07;;;;;;;7.78;6.22;;;33.00;99.90;;;;;;5053550;28;20194;-85
2022/08/14 09:25:34;;;;;;;5.47;4.97;;;33.00;99.90;;;;;;5053455;28;20598;-87
2022/08/14 09:28:02;;;;;;;6.75;6.15;;;32.80;99.90;;;;;;5053774;28;20209;-84
2022/08/14 09:30:31;;;;;;;6.50;5.90;;;32.90;99.90;;;;;;5053195;28;20264;-85
2022/08/14 09:33:29;;;;;;;6.50;5.88;;;32.90;99.90;;;;;;5053552;28;20666;-88
2022/08/14 09:36:14;;;;;;;7.50;6.20;;;33.00;99.90;;;;;;5041921;28;20218;-89
2022/08/14 09:38:49;;;;;;;6.20;5.40;;;33.10;99.90;;;;;;5052958;28;20220;-84
2022/08/14 09:41:33;;;;;;;6.57;5.95;;;33.10;99.90;;;;;;5053597;28;20351;-84
2022/08/14 09:44:07;;;;;;;6.40;5.90;;;33.20;99.90;;;;;;5052803;28;20547;-85
2022/08/14 09:46:36;;;;;;;6.80;6.22;;;33.30;99.90;;;;;;5053707;28;20237;-87
2022/08/14 09:49:05;;;;;;;7.82;7.13;;;33.50;99.90;;;;;;5052795;28;20228;-83
2022/08/14 09:51:33;;;;;;;6.65;6.05;;;33.20;99.90;;;;;;5052363;28;20548;-84
2022/08/14 09:54:05;;;;;;;7.25;6.50;;;33.20;99.90;;;;;;5052463;28;20681;-84
2022/08/14 09:56:44;;;;;;;6.75;6.18;;;33.20;99.90;;;;;;5051804;28;20284;-83
2022/08/14 09:59:14;;;;;;;6.80;6.28;;;32.90;99.90;;;;;;5052694;28;20768;-82
2022/08/14 10:01:43;;;;;;;8.48;7.72;;;32.90;99.90;;;;;;5051639;28;20857;-83
2022/08/14 10:04:19;;;;;;;8.27;7.57;;;32.90;99.90;;;;;;5053486;28;20233;-84
2022/08/14 10:06:47;;;;;;;7.68;7.07;;;32.90;99.90;;;;;;5053301;28;20465;-85
2022/08/14 10:09:14;;;;;;;7.40;6.68;;;33.00;99.90;;;;;;5052628;28;20282;-83
2022/08/14 10:11:53;;;;;;;7.35;6.75;;;33.20;99.90;;;;;;5049276;28;20205;-88
2022/08/14 10:14:23;;;;;;;7.65;6.95;;;33.20;99.90;;;;;;5053253;28;20296;-92
2022/08/14 10:16:53;;;;;;;7.97;7.32;;;33.20;99.90;;;;;;5053305;28;20213;-92
2022/08/14 10:19:23;;;;;;;7.25;6.55;;;33.20;99.90;;;;;;5053283;28;20202;-88
2022/08/14 10:21:59;;;;;;;6.85;6.25;;;33.20;99.90;;;;;;5053000;28;20209;-82
2022/08/14 10:24:28;;;;;;;6.68;5.88;;;33.20;99.90;;;;;;5055043;28;20189;-84
2022/08/14 10:26:56;;;;;;;7.65;6.80;;;33.30;99.90;;;;;;5073711;28;20280;-84
2022/08/14 10:29:32;;;;;;;6.63;6.07;;;33.30;99.90;;;;;;5061028;28;21017;-86
2022/08/14 10:32:01;;;;;;;6.93;5.32;;;33.30;99.90;;;;;;5064476;28;20232;-84
2022/08/14 10:34:33;;;;;;;6.43;5.68;;;33.60;99.90;;;;;;5055953;28;20237;-84
2022/08/14 10:37:06;;;;;;;6.68;6.18;;;33.70;99.90;;;;;;5051889;28;20234;-86
2022/08/14 10:39:34;;;;;;;6.78;6.07;;;33.60;99.90;;;;;;5051766;28;20210;-84
2022/08/14 10:42:04;;;;;;;6.15;5.65;;;33.80;99.90;;;;;;5054365;28;20202;-88
2022/08/14 10:44:34;;;;;;;6.28;5.68;;;33.90;99.90;;;;;;5064310;28;20198;-91
2022/08/14 10:47:08;;;;;;;5.75;5.15;;;34.10;99.90;;;;;;5074715;28;20194;-91
2022/08/14 10:49:36;;;;;;;5.88;5.28;;;34.20;99.90;;;;;;5058865;28;20204;-94
2022/08/14 10:52:07;;;;;;;5.72;5.10;;;34.20;99.90;;;;;;5059313;28;20205;-92
2022/08/14 10:54:38;;;;;;;5.15;4.70;;;34.40;99.90;;;;;;5058742;28;20229;-86
2022/08/14 10:57:19;;;;;;;5.20;4.80;;;34.50;99.90;;;;;;5044934;28;20210;-86
2022/08/14 10:59:51;;;;;;;5.35;4.68;;;34.50;99.90;;;;;;5037192;28;20198;-85
2022/08/14 11:02:23;;;;;;;6.57;4.70;;;34.60;99.90;;;;;;5037752;28;20240;-89
2022/08/14 11:05:05;;;;;;;5.47;4.97;;;34.70;99.90;;;;;;5037592;28;20218;-89
2022/08/14 11:07:32;;;;;;;5.60;5.10;;;34.80;99.90;;;;;;5042316;28;20222;-92
2022/08/14 11:10:01;;;;;;;6.85;5.40;;;34.70;99.90;;;;;;5057668;28;20288;-87
2022/08/14 11:12:40;;;;;;;7.25;4.82;;;34.70;99.90;;;;;;5056315;28;20285;-88
2022/08/14 11:15:09;;;;;;;6.50;5.25;;;34.60;99.90;;;;;;5057599;28;20217;-94
2022/08/14 11:17:37;;;;;;;5.80;5.30;;;34.60;99.90;;;;;;5057313;28;20226;-89
2022/08/14 11:20:07;;;;;;;12.48;6.88;;;34.40;99.90;;;;;;5057018;28;20216;-93
2022/08/14 11:22:37;;;;;;;5.70;5.20;;;34.50;99.90;;;;;;5064322;28;20642;-90
2022/08/14 11:25:10;;;;;;;6.10;5.15;;;34.60;99.90;;;;;;5056410;28;20209;-87
2022/08/14 11:27:39;;;;;;;5.05;4.55;;;34.60;99.90;;;;;;5052483;23;20244;-88
2022/08/14 11:30:08;;;;;;;7.95;5.75;;;34.80;99.90;;;;;;5039722;28;20225;-92
2022/08/14 11:32:38;;;;;;;5.28;4.88;;;34.90;99.90;;;;;;5052822;28;20198;-85
2022/08/14 11:35:06;;;;;;;5.32;4.93;;;35.00;99.90;;;;;;5054987;28;20221;-92
2022/08/14 11:37:33;;;;;;;6.28;5.68;;;35.00;99.90;;;;;;5059310;28;20225;-90
2022/08/14 11:40:00;;;;;;;6.72;5.53;;;35.20;99.90;;;;;;5058433;28;20604;-87
2022/08/14 11:42:29;;;;;;;6.18;5.57;;;35.20;99.90;;;;;;5057977;28;20202;-88
2022/08/14 11:44:58;;;;;;;5.53;5.05;;;35.40;99.90;;;;;;5058007;28;20218;-90
2022/08/14 11:47:32;;;;;;;6.03;5.35;;;35.60;99.90;;;;;;5056150;28;20208;-86
2022/08/14 11:50:00;;;;;;;5.50;5.00;;;35.50;99.90;;;;;;5055799;28;20194;-90
2022/08/14 11:52:35;;;;;;;5.32;4.93;;;35.70;99.90;;;;;;5056134;28;20202;-81
2022/08/14 11:55:02;;;;;;;5.82;5.40;;;35.40;99.90;;;;;;5054930;28;20605;-87
2022/08/14 11:57:29;;;;;;;5.07;4.65;;;35.00;98.70;;;;;;5056691;28;20200;-93
2022/08/14 12:00:11;;;;;;;4.90;4.45;;;34.90;98.00;;;;;;5057234;28;20614;-89
2022/08/14 12:02:50;;;;;;;5.03;4.65;;;35.00;96.50;;;;;;5057293;28;20521;-91
2022/08/14 12:05:29;;;;;;;4.35;3.95;;;34.90;95.40;;;;;;5048482;28;20255;-86
2022/08/14 12:07:57;;;;;;;3.78;3.47;;;34.90;93.50;;;;;;5052243;28;20202;-84
2022/08/14 12:10:28;;;;;;;3.45;3.08;;;34.80;89.30;;;;;;5055569;28;20198;-85
2022/08/14 12:12:55;;;;;;;4.88;4.45;;;34.90;85.60;;;;;;5055210;28;20210;-88
2022/08/14 12:15:31;;;;;;;5.72;4.38;;;35.00;89.80;;;;;;5049154;28;20217;-82
2022/08/14 12:17:59;;;;;;;4.20;3.90;;;35.30;91.70;;;;;;5054530;28;20182;-85
2022/08/14 12:20:32;;;;;;;3.90;3.60;;;35.30;86.20;;;;;;5055611;28;20275;-86
2022/08/14 12:23:01;;;;;;;3.85;3.55;;;35.20;82.30;;;;;;5057074;28;20209;-88
2022/08/14 12:25:28;;;;;;;3.85;3.47;;;35.50;82.60;;;;;;5053758;28;20190;-83
2022/08/14 12:27:59;;;;;;;3.83;3.50;;;35.80;82.60;;;;;;5056335;28;20243;-88
2022/08/14 12:30:28;;;;;;;5.05;3.50;;;35.90;84.20;;;;;;5056430;28;20209;-88
2022/08/14 12:32:56;;;;;;;3.53;3.03;;;36.00;83.40;;;;;;5056040;28;20477;-84
2022/08/14 12:35:23;;;;;;;3.40;3.10;;;36.10;77.50;;;;;;5053579;28;20625;-90
2022/08/14 12:37:52;;;;;;;3.05;2.85;;;36.20;73.70;;;;;;5055238;28;20198;-85
2022/08/14 12:40:23;;;;;;;4.68;2.95;;;36.20;64.00;;;;;;5045544;28;20305;-91
2022/08/14 12:42:52;;;;;;;4.93;3.72;;;36.30;64.70;;;;;;5034239;28;20232;-83
2022/08/14 12:45:32;;;;;;;7.53;3.30;;;36.30;65.00;;;;;;5048793;28;20190;-80
2022/08/14 12:48:00;;;;;;;4.35;2.80;;;36.20;63.40;;;;;;5033258;28;20195;-80
2022/08/14 12:50:35;;;;;;;2.92;2.45;;;35.90;59.70;;;;;;5048902;28;20594;-79
2022/08/14 12:53:04;;;;;;;2.80;2.45;;;35.70;55.20;;;;;;5051919;28;20194;-79
2022/08/14 12:55:34;;;;;;;4.43;2.65;;;35.70;52.80;;;;;;5052172;28;20222;-81
2022/08/14 12:58:04;;;;;;;2.95;2.70;;;35.90;53.30;;;;;;5051328;28;20202;-79
2022/08/14 13:00:33;;;;;;;4.53;2.83;;;35.60;51.00;;;;;;5032974;28;20205;-80
2022/08/14 13:03:01;;;;;;;3.30;3.00;;;35.50;49.90;;;;;;5032588;28;20632;-80
2022/08/14 13:05:31;;;;;;;5.50;3.00;;;35.70;51.80;;;;;;5047725;28;20209;-78
2022/08/14 13:08:02;;;;;;;2.92;2.70;;;35.70;51.60;;;;;;5052450;28;20672;-78